createdAt,value
2022-12-01T09:29:18.882Z,0.39
2022-12-01T09:30:46.433Z,0.39
2022-12-01T09:32:46.956Z,0.39
2022-12-01T09:34:46.386Z,0.39
2022-12-01T09:36:46.712Z,0.39
2022-12-01T09:38:47.140Z,0.39
2022-12-01T09:40:46.372Z,0.39
2022-12-01T09:42:58.044Z,0.39
2022-12-01T09:44:46.927Z,0.39
2022-12-01T09:46:47.494Z,0.39
2022-12-01T09:48:46.587Z,0.39
2022-12-01T09:50:46.937Z,0.39
2022-12-01T09:52:47.075Z,0.39
2022-12-01T09:54:46.506Z,0.39
2022-12-01T09:56:56.533Z,0.39
2022-12-01T09:58:47.059Z,0.39
2022-12-01T10:00:50.575Z,0.39
2022-12-01T10:02:47.048Z,0.39
2022-12-01T10:04:46.891Z,0.39
2022-12-01T10:07:13.577Z,0.39
2022-12-01T10:08:49.787Z,0.39
2022-12-01T10:10:46.686Z,0.39
2022-12-01T10:12:46.878Z,0.39
2022-12-01T10:14:53.686Z,0.39
2022-12-01T10:16:46.926Z,0.39
2022-12-01T10:18:46.805Z,0.39
2022-12-01T10:20:47.216Z,0.39
2022-12-01T10:22:46.492Z,0.39
2022-12-01T10:24:46.672Z,0.39
2022-12-01T10:26:46.873Z,0.39
2022-12-01T10:28:47.028Z,0.39
2022-12-01T10:30:46.579Z,0.39
2022-12-01T10:32:46.987Z,0.39
2022-12-01T10:34:47.066Z,0.39
2022-12-01T10:36:46.333Z,0.39
2022-12-01T10:38:46.889Z,0.39
2022-12-01T10:40:46.982Z,0.39
2022-12-01T10:42:46.215Z,18.7
2022-12-01T10:44:46.663Z,18.7
2022-12-01T10:46:47.290Z,18.7
2022-12-01T10:48:47.187Z,1.11
2022-12-01T10:50:46.364Z,1.11
2022-12-01T10:52:46.809Z,1.11
2022-12-01T10:54:47.139Z,0.74
2022-12-01T10:56:46.228Z,0.74
2022-12-01T10:58:54.268Z,0.74
2022-12-01T11:01:25.507Z,0.58
2022-12-01T11:02:48.303Z,0.58
2022-12-01T11:04:47.221Z,0.58
2022-12-01T11:06:46.321Z,0.58
2022-12-01T11:08:46.940Z,0.58
2022-12-01T11:10:47.136Z,0.58
2022-12-01T11:12:46.473Z,0.53
2022-12-01T11:14:46.795Z,0.53
2022-12-01T11:16:47.510Z,0.53
2022-12-01T11:18:46.487Z,0.53
2022-12-01T11:20:47.044Z,0.53
2022-12-01T11:22:47.113Z,0.53
2022-12-01T11:24:47.229Z,0.53
2022-12-01T11:26:46.389Z,0.53
2022-12-01T11:28:46.660Z,0.53
2022-12-01T11:30:47.001Z,0.53
2022-12-01T11:32:48.114Z,0.53
2022-12-01T11:34:47.026Z,0.53
2022-12-01T11:39:14.869Z,0.48
2022-12-01T11:42:47.090Z,0.48
2022-12-01T11:46:55.837Z,0.48
2022-12-01T11:50:46.960Z,0.48
2022-12-01T11:54:46.519Z,0.48
2022-12-01T11:58:47.430Z,0.48
2022-12-01T12:02:47.530Z,0.48
2022-12-01T12:07:17.279Z,0.48
2022-12-01T12:10:46.992Z,0.48
2022-12-01T12:14:47.170Z,0.48
2022-12-01T12:16:20.470Z,0.48
2022-12-01T12:18:47.433Z,0.48
2022-12-01T12:22:49.716Z,0.48
2022-12-01T12:26:47.158Z,0.44
2022-12-01T12:30:46.892Z,0.48
2022-12-01T12:34:47.154Z,0.48
2022-12-01T12:38:47.051Z,0.48
2022-12-01T12:42:46.624Z,0.44
2022-12-01T12:46:47.823Z,0.44
2022-12-01T12:50:46.756Z,0.44
2022-12-01T12:54:47.016Z,0.44
2022-12-01T12:58:49.451Z,0.44
2022-12-01T13:02:46.776Z,0.44
2022-12-01T13:06:47.266Z,0.44
2022-12-01T13:10:46.989Z,0.44
2022-12-01T13:14:46.709Z,0.44
2022-12-01T13:18:46.300Z,0.44
2022-12-01T13:22:47.571Z,0.44
2022-12-01T13:26:47.006Z,0.44
2022-12-01T13:30:47.016Z,0.44
2022-12-01T13:34:46.551Z,0.44
2022-12-01T13:38:46.382Z,0.44
2022-12-01T13:42:47.114Z,0.44
2022-12-01T13:46:47.053Z,0.44
2022-12-01T13:50:47.362Z,0.44
2022-12-01T13:54:46.912Z,0.44
2022-12-01T13:58:46.923Z,0.44
2022-12-01T14:02:47.506Z,0.44
2022-12-01T14:06:46.474Z,0.44
2022-12-01T14:10:47.376Z,0.44
2022-12-01T14:14:48.993Z,0.44
2022-12-01T14:18:46.427Z,0.44
2022-12-01T14:22:46.899Z,0.44
2022-12-01T14:26:46.571Z,0.44
2022-12-01T14:30:47.147Z,0.44
2022-12-01T14:34:52.773Z,0.44
2022-12-01T14:38:46.661Z,0.44
2022-12-01T14:42:46.857Z,0.44
2022-12-01T14:46:47.441Z,0.44
2022-12-01T14:50:52.146Z,0.44
2022-12-01T14:54:46.377Z,0.44
2022-12-01T14:58:47.029Z,0.44
2022-12-01T15:02:47.173Z,0.44
2022-12-01T15:06:47.139Z,0.44
2022-12-01T15:10:47.407Z,0.44
2022-12-01T15:14:47.181Z,0.44
2022-12-01T15:18:46.620Z,0.44
2022-12-01T15:22:47.271Z,0.44
2022-12-01T15:26:46.902Z,0.44
2022-12-01T15:30:46.745Z,0.44
2022-12-01T15:34:46.470Z,0.44
2022-12-01T15:38:47.177Z,0.44
2022-12-01T15:42:46.764Z,0.44
2022-12-01T15:46:46.846Z,0.44
2022-12-01T15:50:52.425Z,0.44
2022-12-01T15:54:46.747Z,0.44
2022-12-01T15:58:46.474Z,0.44
2022-12-01T16:02:47.489Z,0.44
2022-12-01T16:06:46.881Z,0.44
2022-12-01T16:10:47.022Z,0.44
2022-12-01T16:14:46.797Z,0.44
2022-12-01T16:18:46.304Z,0.44
2022-12-01T16:22:47.081Z,0.44
2022-12-01T16:26:47.897Z,0.44
2022-12-01T16:30:47.018Z,0.44
2022-12-01T16:35:20.694Z,0.44
2022-12-01T16:38:47.068Z,0.44
2022-12-01T16:42:46.878Z,0.44
2022-12-01T16:46:46.727Z,0.44
2022-12-01T16:50:46.909Z,0.44
2022-12-01T16:54:46.542Z,0.44
2022-12-01T16:58:47.155Z,0.44
2022-12-01T17:02:47.510Z,0.44
2022-12-01T17:06:46.808Z,0.44
2022-12-01T17:10:47.284Z,0.44
2022-12-01T17:14:46.469Z,0.44
2022-12-01T17:18:47.252Z,0.44
2022-12-01T17:22:46.970Z,0.44
2022-12-01T17:26:46.712Z,0.44
2022-12-01T17:30:46.334Z,0.44
2022-12-01T17:34:47.209Z,0.44
2022-12-01T17:38:46.654Z,0.39
2022-12-01T17:42:50.702Z,0.44
2022-12-01T17:46:47.476Z,0.44
2022-12-01T17:50:47.366Z,0.44
2022-12-01T17:54:46.885Z,0.44
2022-12-01T17:58:47.186Z,0.44
2022-12-01T18:02:47.370Z,0.44
2022-12-01T18:06:53.532Z,0.44
2022-12-01T18:10:47.106Z,0.44
2022-12-01T18:14:46.402Z,0.44
2022-12-01T18:18:47.063Z,0.44
2022-12-01T18:22:46.998Z,0.44
2022-12-01T18:26:50.084Z,0.44
2022-12-01T18:30:46.935Z,0.39
2022-12-01T18:34:46.601Z,0.39
2022-12-01T18:38:46.367Z,0.44
2022-12-01T18:42:46.947Z,0.44
2022-12-01T18:46:47.237Z,0.44
2022-12-01T18:50:46.396Z,0.44
2022-12-01T18:54:47.175Z,0.44
2022-12-01T18:58:46.871Z,0.44
2022-12-01T19:02:47.153Z,0.39
2022-12-01T19:06:46.455Z,0.39
2022-12-01T19:10:47.114Z,0.39
2022-12-01T19:14:47.138Z,0.39
2022-12-01T19:18:46.786Z,0.39
2022-12-01T19:22:46.474Z,0.39
2022-12-01T19:26:47.144Z,0.39
2022-12-01T19:30:48.369Z,0.39
2022-12-01T19:34:46.610Z,0.39
2022-12-01T19:38:46.870Z,0.39
2022-12-01T19:42:47.176Z,0.39
2022-12-01T19:46:47.116Z,0.39
2022-12-01T19:50:47.270Z,0.39
2022-12-01T19:54:46.918Z,0.39
2022-12-01T19:58:46.744Z,0.39
2022-12-01T20:02:52.105Z,0.39
2022-12-01T20:06:47.013Z,0.39
2022-12-01T20:10:46.930Z,0.39
2022-12-01T20:14:46.450Z,0.39
2022-12-01T20:18:47.069Z,0.39
2022-12-01T20:22:46.507Z,0.39
2022-12-01T20:26:53.078Z,0.44
2022-12-01T20:30:47.143Z,0.44
2022-12-01T20:34:46.758Z,0.39
2022-12-01T20:38:50.528Z,0.39
2022-12-01T20:42:47.143Z,0.39
2022-12-01T20:46:47.332Z,0.44
2022-12-01T20:50:46.850Z,0.44
2022-12-01T20:55:13.541Z,0.44
2022-12-01T20:58:49.093Z,0.44
2022-12-01T21:02:47.274Z,0.44
2022-12-01T21:06:46.623Z,0.44
2022-12-01T21:10:53.654Z,0.44
2022-12-01T21:14:46.935Z,0.44
2022-12-01T21:18:46.586Z,0.44
2022-12-01T21:22:47.150Z,0.44
2022-12-01T21:26:46.617Z,0.44
2022-12-01T21:30:47.638Z,0.44
2022-12-01T21:34:47.025Z,0.44
2022-12-01T21:38:52.834Z,0.44
2022-12-01T21:42:46.932Z,0.44
2022-12-01T21:46:47.778Z,0.44
2022-12-01T21:50:52.275Z,0.44
2022-12-01T21:54:46.444Z,0.44
2022-12-01T21:58:47.115Z,0.44
2022-12-01T22:02:47.020Z,0.44
2022-12-01T22:07:14.460Z,0.44
2022-12-01T22:10:54.020Z,0.44
2022-12-01T22:14:46.707Z,0.44
2022-12-01T22:18:46.527Z,0.44
2022-12-01T22:22:46.336Z,0.44
2022-12-01T22:26:47.301Z,0.44
2022-12-01T22:30:47.007Z,0.44
2022-12-01T22:34:49.149Z,0.44
2022-12-01T22:38:46.477Z,0.44
2022-12-01T22:42:47.308Z,0.44
2022-12-01T22:46:47.441Z,0.44
2022-12-01T22:50:51.494Z,0.44
2022-12-01T22:54:46.583Z,0.44
2022-12-01T22:58:47.233Z,0.44
2022-12-01T23:02:54.588Z,0.44
2022-12-01T23:06:46.845Z,0.44
2022-12-01T23:10:46.639Z,0.44
2022-12-01T23:14:47.514Z,0.44
2022-12-01T23:18:47.040Z,0.44
2022-12-01T23:22:46.637Z,0.44
2022-12-01T23:26:47.240Z,0.44
2022-12-01T23:30:47.416Z,0.44
2022-12-01T23:34:46.603Z,0.44
2022-12-01T23:38:46.708Z,0.44
2022-12-01T23:42:47.100Z,0.44
2022-12-01T23:46:47.433Z,0.44
2022-12-01T23:50:46.397Z,0.44
2022-12-01T23:54:46.460Z,0.44
2022-12-01T23:58:47.111Z,0.44
